createdAt,value
2019-04-28T00:00:51.267Z,11.40
2019-04-28T00:03:21.788Z,11.40
2019-04-28T00:05:51.732Z,11.40
2019-04-28T00:08:21.633Z,11.40
2019-04-28T00:10:53.284Z,11.40
2019-04-28T00:13:24.433Z,11.40
2019-04-28T00:15:55.899Z,11.40
2019-04-28T00:18:25.862Z,11.40
2019-04-28T00:21:15.184Z,11.40
2019-04-28T00:24:13.929Z,11.40
2019-04-28T00:26:52.059Z,11.40
2019-04-28T00:29:21.982Z,11.40
2019-04-28T00:31:51.777Z,11.40
2019-04-28T00:34:21.641Z,11.40
2019-04-28T00:37:13.461Z,11.40
2019-04-28T00:39:43.489Z,11.40
2019-04-28T00:42:13.257Z,11.40
2019-04-28T00:44:43.399Z,11.40
2019-04-28T00:47:13.406Z,11.40
2019-04-28T00:49:46.357Z,11.40
2019-04-28T00:52:17.767Z,11.40
2019-04-28T00:54:48.549Z,11.40
2019-04-28T00:57:21.168Z,11.40
2019-04-28T00:59:57.640Z,11.40
2019-04-28T01:02:41.777Z,11.40
2019-04-28T01:05:12.081Z,11.40
2019-04-28T01:07:42.066Z,11.40
2019-04-28T01:10:12.643Z,11.50
2019-04-28T01:12:42.658Z,11.40
2019-04-28T01:15:39.532Z,11.40
2019-04-28T01:18:21.849Z,11.50
2019-04-28T01:20:51.750Z,11.50
2019-04-28T01:23:21.593Z,11.50
2019-04-28T01:25:51.331Z,11.50
2019-04-28T01:28:21.361Z,11.50
2019-04-28T01:31:05.062Z,11.50
2019-04-28T01:34:03.027Z,11.50
2019-04-28T01:36:33.690Z,11.50
2019-04-28T01:39:04.770Z,11.50
2019-04-28T01:41:36.310Z,11.50
2019-04-28T01:44:06.216Z,11.50
2019-04-28T01:46:35.934Z,11.50
2019-04-28T01:49:06.845Z,11.50
2019-04-28T01:51:36.691Z,11.50
2019-04-28T01:54:06.486Z,11.50
2019-04-28T01:56:36.329Z,11.50
2019-04-28T01:59:07.148Z,11.50
2019-04-28T02:01:37.006Z,11.50
2019-04-28T02:04:06.797Z,11.50
2019-04-28T02:06:36.558Z,11.50
2019-04-28T02:09:09.808Z,11.50
2019-04-28T02:11:41.376Z,11.50
2019-04-28T02:14:11.263Z,11.50
2019-04-28T02:16:41.100Z,11.50
2019-04-28T02:19:10.970Z,11.50
2019-04-28T02:21:53.245Z,11.50
2019-04-28T02:24:30.903Z,11.50
2019-04-28T02:27:01.148Z,11.50
2019-04-28T02:29:31.070Z,11.50
2019-04-28T02:32:02.061Z,11.50
2019-04-28T02:34:32.310Z,11.50
2019-04-28T02:37:05.761Z,11.50
2019-04-28T02:39:35.533Z,11.50
2019-04-28T02:42:05.389Z,11.50
2019-04-28T02:44:35.381Z,11.50
2019-04-28T02:47:05.406Z,11.50
2019-04-28T02:49:54.346Z,11.50
2019-04-28T02:52:41.898Z,11.50
2019-04-28T02:55:11.751Z,11.50
2019-04-28T02:57:41.611Z,11.50
2019-04-28T03:00:11.646Z,11.50
2019-04-28T03:02:41.846Z,11.50
2019-04-28T03:05:11.858Z,11.50
2019-04-28T03:07:41.920Z,11.50
2019-04-28T03:10:13.130Z,11.50
2019-04-28T03:12:42.966Z,11.50
2019-04-28T03:15:12.905Z,11.50
2019-04-28T03:17:42.743Z,11.50
2019-04-28T03:20:12.695Z,11.50
2019-04-28T03:22:42.540Z,11.50
2019-04-28T03:25:20.428Z,11.50
2019-04-28T03:28:12.151Z,11.50
2019-04-28T03:30:54.315Z,11.50
2019-04-28T03:33:26.434Z,11.50
2019-04-28T03:35:57.595Z,11.50
2019-04-28T03:38:27.458Z,11.50
2019-04-28T03:40:57.212Z,11.50
2019-04-28T03:43:26.977Z,11.50
2019-04-28T03:46:03.607Z,11.50
2019-04-28T03:48:33.953Z,11.50
2019-04-28T03:51:03.854Z,11.50
2019-04-28T03:53:33.623Z,11.50
2019-04-28T03:56:03.474Z,11.50
2019-04-28T03:58:33.337Z,11.50
2019-04-28T04:01:03.422Z,11.50
2019-04-28T04:03:33.295Z,11.50
2019-04-28T04:06:02.984Z,11.50
2019-04-28T04:08:32.753Z,11.50
2019-04-28T04:11:11.293Z,11.50
2019-04-28T04:13:45.831Z,11.50
2019-04-28T04:16:31.504Z,11.50
2019-04-28T04:19:01.770Z,11.50
2019-04-28T04:21:31.554Z,11.50
2019-04-28T04:24:02.215Z,11.50
2019-04-28T04:26:33.510Z,11.50
2019-04-28T04:29:03.737Z,11.50
2019-04-28T04:31:33.438Z,11.50
2019-04-28T04:34:03.645Z,11.50
2019-04-28T04:36:33.466Z,11.50
2019-04-28T04:39:03.577Z,11.50
2019-04-28T04:41:34.273Z,11.50
2019-04-28T04:44:04.131Z,11.50
2019-04-28T04:46:33.835Z,11.50
2019-04-28T04:49:04.258Z,11.50
2019-04-28T04:51:33.941Z,11.50
2019-04-28T04:54:03.733Z,11.60
2019-04-28T04:56:33.566Z,11.60
2019-04-28T04:59:03.413Z,11.60
2019-04-28T05:01:45.869Z,11.60
2019-04-28T05:04:24.641Z,11.60
2019-04-28T05:06:54.632Z,11.60
2019-04-28T05:09:24.331Z,11.60
2019-04-28T05:11:54.164Z,11.60
2019-04-28T05:14:23.889Z,11.60
2019-04-28T05:16:53.586Z,11.60
2019-04-28T05:19:23.357Z,11.60
2019-04-28T05:21:53.114Z,11.70
2019-04-28T05:24:41.988Z,11.70
2019-04-28T05:27:11.680Z,11.70
2019-04-28T05:29:41.406Z,11.70
2019-04-28T05:32:11.252Z,11.80
2019-04-28T05:34:46.797Z,11.80
2019-04-28T05:37:12.577Z,11.80
2019-04-28T05:39:42.457Z,11.80
2019-04-28T05:42:12.227Z,11.90
2019-04-28T05:44:41.930Z,11.90
2019-04-28T05:47:11.698Z,12.00
2019-04-28T05:50:07.352Z,12.00
2019-04-28T05:53:01.962Z,12.10
2019-04-28T05:55:50.187Z,12.10
2019-04-28T05:58:35.436Z,12.20
2019-04-28T06:01:16.897Z,12.20
2019-04-28T06:03:47.324Z,12.30
2019-04-28T06:06:17.985Z,12.40
2019-04-28T06:08:56.400Z,12.40
2019-04-28T06:11:30.818Z,12.50
2019-04-28T06:14:01.827Z,12.60
2019-04-28T06:16:31.680Z,12.70
2019-04-28T06:19:01.500Z,12.80
2019-04-28T06:21:32.316Z,12.90
2019-04-28T06:24:02.033Z,13.00
2019-04-28T06:26:31.856Z,13.10
2019-04-28T06:29:01.540Z,13.20
2019-04-28T06:31:31.337Z,13.30
2019-04-28T06:34:01.097Z,13.50
2019-04-28T06:36:30.889Z,13.60
2019-04-28T06:39:00.608Z,13.70
2019-04-28T06:41:31.930Z,13.80
2019-04-28T06:44:01.629Z,14.00
2019-04-28T06:46:32.549Z,14.10
2019-04-28T06:49:02.308Z,14.20
2019-04-28T06:51:32.005Z,14.40
2019-04-28T06:54:01.712Z,14.50
2019-04-28T06:56:31.405Z,14.60
2019-04-28T06:59:01.180Z,14.70
2019-04-28T07:01:30.910Z,14.80
2019-04-28T07:04:00.674Z,14.90
2019-04-28T07:06:30.537Z,15.10
2019-04-28T07:09:00.235Z,15.20
2019-04-28T07:11:29.934Z,15.40
2019-04-28T07:13:59.628Z,15.60
2019-04-28T07:16:29.489Z,15.80
2019-04-28T07:18:59.198Z,16.00
2019-04-28T07:21:57.587Z,16.20
2019-04-28T07:24:29.088Z,16.40
2019-04-28T07:26:58.982Z,16.60
2019-04-28T07:29:28.754Z,16.70
2019-04-28T07:31:59.793Z,16.70
2019-04-28T07:34:29.565Z,16.80
2019-04-28T07:36:59.353Z,17.00
2019-04-28T07:39:29.410Z,17.20
2019-04-28T07:41:59.116Z,17.40
2019-04-28T07:44:28.878Z,17.70
2019-04-28T07:46:58.662Z,18.10
2019-04-28T07:49:28.430Z,18.60
2019-04-28T07:52:06.356Z,19.10
2019-04-28T07:54:36.205Z,19.50
2019-04-28T07:57:06.260Z,20.00
2019-04-28T07:59:35.978Z,20.40
2019-04-28T08:02:05.839Z,20.70
2019-04-28T08:04:36.457Z,21.00
2019-04-28T08:07:06.228Z,21.20
2019-04-28T08:09:36.061Z,21.30
2019-04-28T08:12:06.196Z,21.30
2019-04-28T08:14:36.026Z,21.40
2019-04-28T08:17:05.865Z,21.40
2019-04-28T08:19:35.565Z,21.30
2019-04-28T08:22:05.417Z,21.20
2019-04-28T08:24:35.235Z,21.00
2019-04-28T08:27:05.117Z,20.70
2019-04-28T08:29:35.776Z,20.60
2019-04-28T08:32:22.463Z,20.40
2019-04-28T08:34:52.162Z,20.40
2019-04-28T08:37:21.869Z,20.40
2019-04-28T08:39:51.629Z,20.50
2019-04-28T08:42:21.421Z,20.60
2019-04-28T08:44:51.109Z,20.60
2019-04-28T08:47:20.857Z,20.60
2019-04-28T08:49:51.625Z,20.70
2019-04-28T08:52:21.577Z,20.70
2019-04-28T08:54:51.329Z,20.60
2019-04-28T08:57:21.100Z,20.70
2019-04-28T08:59:50.873Z,20.80
2019-04-28T09:02:20.653Z,20.90
2019-04-28T09:04:50.428Z,21.10
2019-04-28T09:07:20.194Z,21.10
2019-04-28T09:09:49.962Z,21.10
2019-04-28T09:12:19.685Z,21.10
2019-04-28T09:14:49.369Z,21.00
2019-04-28T09:17:19.201Z,20.90
2019-04-28T09:19:48.979Z,20.80
2019-04-28T09:22:18.704Z,20.70
2019-04-28T09:24:48.390Z,20.60
2019-04-28T09:27:18.238Z,20.60
2019-04-28T09:29:47.933Z,20.50
2019-04-28T09:32:17.748Z,20.50
2019-04-28T09:34:47.433Z,20.50
2019-04-28T09:37:17.136Z,20.50
2019-04-28T09:39:54.365Z,20.40
2019-04-28T09:42:42.076Z,20.40
2019-04-28T09:45:17.693Z,20.40
2019-04-28T09:47:47.468Z,20.30
2019-04-28T09:50:17.438Z,20.30
2019-04-28T09:52:48.768Z,20.30
2019-04-28T09:55:18.686Z,20.30
2019-04-28T09:57:48.459Z,20.40
2019-04-28T10:00:18.473Z,20.40
2019-04-28T10:02:48.261Z,20.40
2019-04-28T10:05:18.140Z,20.40
2019-04-28T10:07:47.837Z,20.40
2019-04-28T10:10:17.773Z,20.50
2019-04-28T10:12:47.614Z,20.50
2019-04-28T10:15:17.478Z,20.50
2019-04-28T10:17:47.324Z,20.60
2019-04-28T10:20:18.327Z,20.70
2019-04-28T10:22:48.275Z,20.80
2019-04-28T10:25:20.970Z,20.90
2019-04-28T10:27:49.735Z,21.10
2019-04-28T10:30:19.669Z,21.30
2019-04-28T10:32:49.513Z,21.40
2019-04-28T10:35:19.574Z,21.50
2019-04-28T10:37:50.538Z,21.60
2019-04-28T10:40:35.300Z,21.60
2019-04-28T10:43:05.208Z,21.70
2019-04-28T10:45:45.070Z,21.70
2019-04-28T10:48:15.386Z,21.70
2019-04-28T10:50:45.221Z,21.60
2019-04-28T10:53:15.962Z,21.50
2019-04-28T10:55:45.830Z,21.40
2019-04-28T10:58:15.537Z,21.30
2019-04-28T11:00:45.486Z,21.10
2019-04-28T11:03:16.600Z,20.90
2019-04-28T11:05:46.469Z,20.70
2019-04-28T11:08:33.015Z,20.50
2019-04-28T11:11:09.212Z,20.20
2019-04-28T11:13:38.997Z,19.90
2019-04-28T11:16:09.743Z,19.60
2019-04-28T11:18:40.074Z,19.40
2019-04-28T11:21:09.849Z,19.10
2019-04-28T11:23:39.802Z,18.90
2019-04-28T11:26:09.570Z,18.70
2019-04-28T11:28:39.604Z,18.50
2019-04-28T11:31:09.538Z,18.40
2019-04-28T11:33:48.310Z,18.20
2019-04-28T11:36:19.818Z,18.10
2019-04-28T11:38:49.665Z,18.10
2019-04-28T11:41:19.431Z,18.00
2019-04-28T11:43:49.197Z,18.00
2019-04-28T11:46:20.725Z,18.00
2019-04-28T11:48:50.502Z,18.00
2019-04-28T11:51:20.198Z,18.00
2019-04-28T11:53:50.102Z,18.00
2019-04-28T11:56:19.889Z,18.10
2019-04-28T11:58:49.676Z,18.10
2019-04-28T12:01:20.261Z,18.20
2019-04-28T12:03:52.973Z,18.30
2019-04-28T12:06:22.822Z,18.40
2019-04-28T12:08:55.351Z,18.50
2019-04-28T12:11:31.010Z,18.60
2019-04-28T12:14:20.556Z,18.70
2019-04-28T12:17:09.645Z,18.80
2019-04-28T12:19:46.477Z,18.90
2019-04-28T12:22:16.266Z,19.10
2019-04-28T12:24:45.989Z,19.20
2019-04-28T12:27:15.685Z,19.30
2019-04-28T12:29:45.469Z,19.40
2019-04-28T12:32:15.220Z,19.50
2019-04-28T12:34:45.006Z,19.60
2019-04-28T12:37:14.880Z,19.70
2019-04-28T12:39:44.666Z,19.80
2019-04-28T12:42:14.386Z,19.90
2019-04-28T12:44:44.181Z,20.00
2019-04-28T12:47:13.882Z,20.10
2019-04-28T12:50:08.833Z,20.10
2019-04-28T12:52:41.561Z,20.20
2019-04-28T12:55:11.418Z,20.20
2019-04-28T12:57:41.154Z,20.20
2019-04-28T13:00:33.236Z,20.20
2019-04-28T13:03:34.176Z,20.20
2019-04-28T13:06:06.377Z,20.20
2019-04-28T13:08:36.089Z,20.10
2019-04-28T13:11:05.846Z,20.10
2019-04-28T13:13:35.580Z,19.90
2019-04-28T13:16:05.504Z,19.80
2019-04-28T13:18:35.296Z,19.60
2019-04-28T13:21:05.141Z,19.40
2019-04-28T13:23:35.793Z,19.30
2019-04-28T13:26:05.621Z,19.10
2019-04-28T13:28:36.336Z,19.00
2019-04-28T13:31:07.107Z,18.80
2019-04-28T13:33:36.934Z,18.70
2019-04-28T13:36:14.754Z,18.50
2019-04-28T13:38:38.148Z,18.40
2019-04-28T13:41:08.022Z,18.40
2019-04-28T13:43:38.769Z,18.30
2019-04-28T13:46:08.605Z,18.20
2019-04-28T13:48:38.486Z,18.20
2019-04-28T13:51:08.191Z,18.20
2019-04-28T13:53:37.963Z,18.20
2019-04-28T13:56:07.733Z,18.20
2019-04-28T13:58:44.808Z,18.30
2019-04-28T14:01:33.749Z,18.30
2019-04-28T14:04:21.640Z,18.40
2019-04-28T14:06:54.104Z,18.40
2019-04-28T14:09:23.828Z,18.40
2019-04-28T14:11:53.665Z,18.50
2019-04-28T14:14:23.433Z,18.50
2019-04-28T14:16:53.213Z,18.50
2019-04-28T14:19:23.996Z,18.60
2019-04-28T14:21:53.811Z,18.60
2019-04-28T14:24:23.569Z,18.60
2019-04-28T14:26:53.364Z,18.70
2019-04-28T14:29:23.219Z,18.70
2019-04-28T14:31:52.989Z,18.70
2019-04-28T14:34:22.735Z,18.80
2019-04-28T14:36:52.510Z,18.80
2019-04-28T14:39:22.273Z,18.80
2019-04-28T14:41:52.056Z,18.90
2019-04-28T14:44:21.830Z,18.90
2019-04-28T14:46:51.605Z,18.90
2019-04-28T14:49:21.361Z,18.90
2019-04-28T14:51:51.140Z,18.90
2019-04-28T14:54:21.028Z,18.90
2019-04-28T14:56:50.911Z,18.90
2019-04-28T14:59:20.670Z,18.90
2019-04-28T15:02:10.029Z,18.90
2019-04-28T15:05:00.195Z,18.90
2019-04-28T15:07:54.810Z,18.80
2019-04-28T15:10:36.486Z,18.80
2019-04-28T15:13:06.333Z,18.70
2019-04-28T15:15:36.206Z,18.60
2019-04-28T15:18:07.193Z,18.60
2019-04-28T15:20:37.095Z,18.60
2019-04-28T15:23:07.581Z,18.60
2019-04-28T15:25:37.277Z,18.60
2019-04-28T15:28:07.189Z,18.60
2019-04-28T15:30:37.043Z,18.50
2019-04-28T15:33:06.881Z,18.50
2019-04-28T15:35:38.872Z,18.50
2019-04-28T15:38:08.585Z,18.60
2019-04-28T15:40:38.360Z,18.60
2019-04-28T15:43:08.201Z,18.60
2019-04-28T15:45:37.909Z,18.60
2019-04-28T15:48:07.693Z,18.70
2019-04-28T15:50:37.469Z,18.70
2019-04-28T15:53:07.765Z,18.80
2019-04-28T15:55:47.217Z,18.80
2019-04-28T15:58:29.350Z,18.90
2019-04-28T16:00:59.543Z,18.90
2019-04-28T16:03:29.922Z,18.90
2019-04-28T16:06:00.194Z,19.00
2019-04-28T16:08:30.226Z,18.90
2019-04-28T16:11:00.063Z,18.90
2019-04-28T16:13:29.839Z,18.90
2019-04-28T16:15:59.545Z,18.90
2019-04-28T16:18:29.386Z,19.00
2019-04-28T16:20:59.084Z,18.90
2019-04-28T16:23:28.993Z,18.90
2019-04-28T16:25:58.777Z,18.80
2019-04-28T16:28:28.546Z,18.80
2019-04-28T16:30:58.390Z,18.70
2019-04-28T16:33:29.121Z,18.70
2019-04-28T16:35:58.976Z,18.60
2019-04-28T16:38:29.146Z,18.60
2019-04-28T16:40:58.834Z,18.50
2019-04-28T16:43:28.637Z,18.40
2019-04-28T16:45:58.381Z,18.40
2019-04-28T16:48:28.232Z,18.30
2019-04-28T16:50:58.000Z,18.20
2019-04-28T16:53:27.689Z,18.20
2019-04-28T16:56:19.635Z,18.00
2019-04-28T16:59:07.156Z,18.00
2019-04-28T17:01:46.449Z,17.90
2019-04-28T17:04:16.365Z,17.80
2019-04-28T17:06:46.069Z,17.70
2019-04-28T17:09:17.640Z,17.60
2019-04-28T17:11:47.429Z,17.50
2019-04-28T17:14:17.134Z,17.40
2019-04-28T17:16:47.607Z,17.20
2019-04-28T17:19:17.298Z,17.10
2019-04-28T17:21:47.158Z,17.00
2019-04-28T17:24:16.844Z,16.90
2019-04-28T17:26:46.617Z,16.70
2019-04-28T17:29:16.382Z,16.60
2019-04-28T17:31:46.233Z,16.50
2019-04-28T17:34:16.102Z,16.40
2019-04-28T17:36:45.904Z,16.30
2019-04-28T17:39:18.917Z,16.20
2019-04-28T17:41:48.765Z,16.10
2019-04-28T17:44:18.653Z,16.00
2019-04-28T17:46:48.597Z,15.90
2019-04-28T17:49:21.402Z,15.90
2019-04-28T17:51:51.186Z,15.80
2019-04-28T17:54:21.018Z,15.70
2019-04-28T17:56:50.781Z,15.70
2019-04-28T17:59:20.621Z,15.60
2019-04-28T18:02:12.373Z,15.60
2019-04-28T18:05:03.734Z,15.50
2019-04-28T18:07:35.920Z,15.40
2019-04-28T18:10:07.610Z,15.40
2019-04-28T18:12:37.476Z,15.30
2019-04-28T18:15:27.251Z,15.30
2019-04-28T18:18:15.593Z,15.20
2019-04-28T18:20:45.508Z,15.20
2019-04-28T18:23:15.287Z,15.10
2019-04-28T18:25:45.061Z,15.00
2019-04-28T18:28:14.864Z,15.00
2019-04-28T18:30:51.555Z,14.90
2019-04-28T18:33:39.633Z,14.90
2019-04-28T18:36:14.883Z,14.80
2019-04-28T18:38:53.560Z,14.80
2019-04-28T18:41:41.447Z,14.70
2019-04-28T18:44:16.361Z,14.60
2019-04-28T18:46:46.196Z,14.60
2019-04-28T18:49:15.900Z,14.50
2019-04-28T18:51:45.761Z,14.40
2019-04-28T18:54:15.603Z,14.40
2019-04-28T18:56:46.847Z,14.30
2019-04-28T18:59:16.625Z,14.30
2019-04-28T19:02:01.818Z,14.20
2019-04-28T19:04:31.657Z,14.20
2019-04-28T19:07:05.225Z,14.20
2019-04-28T19:09:46.023Z,14.10
2019-04-28T19:12:22.607Z,14.10
2019-04-28T19:15:07.892Z,14.00
2019-04-28T19:17:47.057Z,13.90
2019-04-28T19:20:16.865Z,13.80
2019-04-28T19:22:47.575Z,13.80
2019-04-28T19:25:17.277Z,13.70
2019-04-28T19:27:46.980Z,13.70
2019-04-28T19:30:16.837Z,13.70
2019-04-28T19:32:46.545Z,13.60
2019-04-28T19:35:16.457Z,13.60
2019-04-28T19:37:46.313Z,13.50
2019-04-28T19:40:16.225Z,13.50
2019-04-28T19:42:47.633Z,13.40
2019-04-28T19:45:19.041Z,13.40
2019-04-28T19:47:48.873Z,13.30
2019-04-28T19:50:18.628Z,13.30
2019-04-28T19:52:48.459Z,13.20
2019-04-28T19:55:22.492Z,13.10
2019-04-28T19:58:05.738Z,13.10
2019-04-28T20:00:40.794Z,13.00
2019-04-28T20:03:12.268Z,13.00
2019-04-28T20:05:42.261Z,12.90
2019-04-28T20:08:12.115Z,12.90
2019-04-28T20:10:41.906Z,12.80
2019-04-28T20:13:11.750Z,12.80
2019-04-28T20:15:41.576Z,12.70
2019-04-28T20:18:11.349Z,12.70
2019-04-28T20:20:41.140Z,12.70
2019-04-28T20:23:11.208Z,12.60
2019-04-28T20:25:41.053Z,12.60
2019-04-28T20:28:10.834Z,12.50
2019-04-28T20:30:40.672Z,12.50
2019-04-28T20:33:10.520Z,12.50
2019-04-28T20:35:45.121Z,12.40
2019-04-28T20:38:27.718Z,12.30
2019-04-28T20:41:11.994Z,12.30
2019-04-28T20:43:41.793Z,12.30
2019-04-28T20:46:11.562Z,12.20
2019-04-28T20:48:41.391Z,12.20
2019-04-28T20:51:11.166Z,12.10
2019-04-28T20:53:40.894Z,12.10
2019-04-28T20:56:10.758Z,12.00
2019-04-28T20:58:40.609Z,12.00
2019-04-28T21:01:10.516Z,11.90
2019-04-28T21:03:40.292Z,11.90
2019-04-28T21:06:11.160Z,11.90
2019-04-28T21:08:40.854Z,11.90
2019-04-28T21:11:10.638Z,11.80
2019-04-28T21:13:40.346Z,11.80
2019-04-28T21:16:10.195Z,11.70
2019-04-28T21:18:39.885Z,11.70
2019-04-28T21:21:09.712Z,11.70
2019-04-28T21:23:39.683Z,11.70
2019-04-28T21:26:09.374Z,11.60
2019-04-28T21:28:39.132Z,11.60
2019-04-28T21:31:08.955Z,11.60
2019-04-28T21:33:38.721Z,11.50
2019-04-28T21:36:08.436Z,11.50
2019-04-28T21:38:38.129Z,11.50
2019-04-28T21:41:07.854Z,11.40
2019-04-28T21:43:46.736Z,11.40
2019-04-28T21:46:22.680Z,11.30
2019-04-28T21:49:11.450Z,11.30
2019-04-28T21:51:41.167Z,11.30
2019-04-28T21:54:10.845Z,11.20
2019-04-28T21:56:40.544Z,11.20
2019-04-28T21:59:10.387Z,11.20
2019-04-28T22:01:40.509Z,11.20
2019-04-28T22:04:11.407Z,11.10
2019-04-28T22:06:41.316Z,11.10
2019-04-28T22:09:11.153Z,11.10
2019-04-28T22:11:42.564Z,11.10
2019-04-28T22:14:12.385Z,11.10
2019-04-28T22:16:42.187Z,11.00
2019-04-28T22:19:12.128Z,11.00
2019-04-28T22:21:41.829Z,11.00
2019-04-28T22:24:43.057Z,10.90
2019-04-28T22:27:14.724Z,10.90
2019-04-28T22:29:44.486Z,10.90
2019-04-28T22:32:16.149Z,10.80
2019-04-28T22:34:45.985Z,10.80
2019-04-28T22:37:15.702Z,10.80
2019-04-28T22:39:47.048Z,10.80
2019-04-28T22:42:18.074Z,10.70
2019-04-28T22:44:47.836Z,10.70
2019-04-28T22:47:17.632Z,10.70
2019-04-28T22:49:47.372Z,10.70
2019-04-28T22:52:17.188Z,10.70
2019-04-28T22:55:06.116Z,10.60
2019-04-28T22:57:45.100Z,10.60
2019-04-28T23:00:44.212Z,10.60
2019-04-28T23:03:21.253Z,10.60
2019-04-28T23:05:51.029Z,10.50
2019-04-28T23:08:20.912Z,10.50
2019-04-28T23:10:50.691Z,10.50
2019-04-28T23:13:20.637Z,10.50
2019-04-28T23:15:51.042Z,10.50
2019-04-28T23:18:21.290Z,10.40
2019-04-28T23:20:54.725Z,10.40
2019-04-28T23:23:24.597Z,10.40
2019-04-28T23:25:54.364Z,10.40
2019-04-28T23:28:24.065Z,10.50
2019-04-28T23:30:53.926Z,10.50
2019-04-28T23:33:23.629Z,10.50
2019-04-28T23:35:53.486Z,10.50
2019-04-28T23:38:23.187Z,10.50
2019-04-28T23:41:08.222Z,10.50
2019-04-28T23:43:37.918Z,10.50
2019-04-28T23:46:07.713Z,10.50
2019-04-28T23:48:37.397Z,10.50
2019-04-28T23:51:14.832Z,10.60
2019-04-28T23:54:00.098Z,10.60
2019-04-28T23:56:29.815Z,10.50
2019-04-28T23:58:59.595Z,10.50
